createdAt,value
2023-03-19T00:00:36.963Z,4.55
2023-03-19T00:03:03.802Z,4.18
2023-03-19T00:05:30.602Z,5.07
2023-03-19T00:07:57.383Z,4.30
2023-03-19T00:10:24.101Z,4.40
2023-03-19T00:12:50.777Z,3.92
2023-03-19T00:15:17.502Z,4.72
2023-03-19T00:17:44.273Z,5.63
2023-03-19T00:20:12.778Z,4.90
2023-03-19T00:22:40.381Z,4.65
2023-03-19T00:25:08.683Z,4.05
2023-03-19T00:27:37.637Z,4.05
2023-03-19T00:30:06.994Z,4.35
2023-03-19T00:32:34.295Z,3.63
2023-03-19T00:35:01.520Z,3.67
2023-03-19T00:37:28.648Z,3.42
2023-03-19T00:39:56.350Z,3.70
2023-03-19T00:42:23.051Z,3.55
2023-03-19T00:44:49.708Z,2.95
2023-03-19T00:47:16.622Z,3.40
2023-03-19T00:49:43.315Z,3.55
2023-03-19T00:52:10.070Z,3.40
2023-03-19T00:54:36.794Z,3.60
2023-03-19T00:57:03.657Z,3.53
2023-03-19T00:59:30.589Z,3.55
2023-03-19T01:01:57.316Z,3.15
2023-03-19T01:04:24.128Z,3.50
2023-03-19T01:06:51.133Z,2.67
2023-03-19T01:09:17.992Z,2.72
2023-03-19T01:11:44.854Z,2.83
2023-03-19T01:14:11.821Z,2.85
2023-03-19T01:16:38.595Z,3.42
2023-03-19T01:19:06.148Z,2.47
2023-03-19T01:21:33.473Z,2.90
2023-03-19T01:24:00.594Z,2.15
2023-03-19T01:26:27.453Z,2.42
2023-03-19T01:28:54.335Z,2.15
2023-03-19T01:31:22.147Z,2.03
2023-03-19T01:33:48.903Z,2.08
2023-03-19T01:36:15.608Z,1.45
2023-03-19T01:38:42.776Z,1.77
2023-03-19T01:41:09.778Z,1.48
2023-03-19T01:43:36.762Z,1.33
2023-03-19T01:46:06.906Z,1.30
2023-03-19T01:48:50.379Z,1.10
2023-03-19T01:53:53.180Z,1.10
2023-03-19T01:56:22.813Z,1.30
2023-03-19T01:58:53.528Z,1.20
2023-03-19T02:01:20.722Z,1.08
2023-03-19T02:03:48.863Z,1.15
2023-03-19T02:06:16.828Z,1.10
2023-03-19T02:08:43.873Z,1.20
2023-03-19T02:11:10.875Z,1.05
2023-03-19T02:13:38.097Z,1.10
2023-03-19T02:16:05.363Z,1.10
2023-03-19T02:18:32.433Z,1.20
2023-03-19T02:21:07.019Z,1.42
2023-03-19T02:23:36.361Z,1.10
2023-03-19T02:26:07.052Z,1.08
2023-03-19T02:28:36.725Z,1.10
2023-03-19T02:31:03.610Z,1.15
2023-03-19T02:33:30.630Z,1.10
2023-03-19T02:35:58.755Z,1.30
2023-03-19T02:38:27.382Z,1.38
2023-03-19T02:41:00.904Z,1.25
2023-03-19T02:43:28.054Z,1.25
2023-03-19T02:45:55.494Z,1.40
2023-03-19T02:48:22.404Z,1.02
2023-03-19T02:50:49.103Z,1.20
2023-03-19T02:53:16.066Z,1.13
2023-03-19T02:55:43.407Z,1.20
2023-03-19T02:58:10.208Z,1.10
2023-03-19T03:00:37.983Z,1.00
2023-03-19T03:03:06.834Z,1.10
2023-03-19T03:05:34.285Z,1.10
2023-03-19T03:08:01.020Z,1.02
2023-03-19T03:10:28.050Z,1.00
2023-03-19T03:12:55.295Z,1.00
2023-03-19T03:15:22.053Z,1.00
2023-03-19T03:17:48.778Z,1.00
2023-03-19T03:20:17.799Z,1.00
2023-03-19T03:22:44.677Z,1.08
2023-03-19T03:25:11.582Z,1.10
2023-03-19T03:27:38.691Z,0.90
2023-03-19T03:30:08.207Z,0.90
2023-03-19T03:32:36.836Z,0.80
2023-03-19T03:35:05.367Z,1.00
2023-03-19T03:37:32.071Z,1.02
2023-03-19T03:39:58.748Z,1.10
2023-03-19T03:42:25.573Z,1.00
2023-03-19T03:44:52.325Z,1.10
2023-03-19T03:47:19.026Z,0.90
2023-03-19T03:49:45.726Z,1.00
2023-03-19T03:52:12.562Z,1.10
2023-03-19T03:54:39.218Z,1.02
2023-03-19T03:57:06.167Z,1.00
2023-03-19T03:59:32.842Z,1.27
2023-03-19T04:01:59.545Z,1.00
2023-03-19T04:04:26.657Z,1.10
2023-03-19T04:06:53.355Z,1.00
2023-03-19T04:09:20.058Z,1.20
2023-03-19T04:11:46.775Z,1.10
2023-03-19T04:14:13.514Z,1.00
2023-03-19T04:16:40.307Z,1.00
2023-03-19T04:19:08.011Z,1.10
2023-03-19T04:21:34.846Z,1.10
2023-03-19T04:24:02.307Z,1.10
2023-03-19T04:26:29.114Z,1.00
2023-03-19T04:28:55.905Z,0.80
2023-03-19T04:31:22.647Z,1.00
2023-03-19T04:33:49.764Z,1.05
2023-03-19T04:36:18.017Z,0.90
2023-03-19T04:38:44.693Z,0.90
2023-03-19T04:41:11.380Z,1.10
2023-03-19T04:43:38.079Z,0.90
2023-03-19T04:46:05.107Z,0.90
2023-03-19T04:48:32.343Z,1.00
2023-03-19T04:50:59.014Z,1.10
2023-03-19T04:53:25.735Z,0.93
2023-03-19T04:55:52.424Z,0.90
2023-03-19T04:58:19.204Z,0.90
2023-03-19T05:00:47.595Z,1.00
2023-03-19T05:03:17.658Z,1.00
2023-03-19T05:05:44.924Z,1.00
2023-03-19T05:08:11.721Z,1.00
2023-03-19T05:10:38.605Z,0.93
2023-03-19T05:13:05.607Z,1.00
2023-03-19T05:15:32.457Z,1.02
2023-03-19T05:17:59.233Z,1.10
2023-03-19T05:20:25.917Z,1.00
2023-03-19T05:22:53.749Z,0.98
2023-03-19T05:25:20.732Z,1.10
2023-03-19T05:27:47.499Z,0.85
2023-03-19T05:30:14.881Z,1.10
2023-03-19T05:32:41.733Z,1.10
2023-03-19T05:35:08.884Z,1.00
2023-03-19T05:37:35.702Z,1.05
2023-03-19T05:40:02.399Z,1.10
2023-03-19T05:42:29.144Z,1.40
2023-03-19T05:44:55.846Z,1.20
2023-03-19T05:47:22.637Z,1.48
2023-03-19T05:49:50.437Z,1.30
2023-03-19T05:52:17.247Z,1.30
2023-03-19T05:54:43.969Z,1.10
2023-03-19T05:57:10.797Z,1.20
2023-03-19T05:59:37.485Z,1.50
2023-03-19T06:02:04.165Z,1.48
2023-03-19T06:04:31.291Z,1.58
2023-03-19T06:06:57.932Z,1.20
2023-03-19T06:09:25.033Z,1.30
2023-03-19T06:11:51.726Z,1.90
2023-03-19T06:14:18.399Z,1.08
2023-03-19T06:16:45.256Z,1.38
2023-03-19T06:19:12.060Z,1.40
2023-03-19T06:21:38.759Z,1.13
2023-03-19T06:24:05.620Z,1.30
2023-03-19T06:26:32.312Z,1.70
2023-03-19T06:28:59.030Z,1.10
2023-03-19T06:31:26.162Z,0.90
2023-03-19T06:33:53.137Z,1.20
2023-03-19T06:36:19.865Z,0.93
2023-03-19T06:38:46.814Z,1.05
2023-03-19T06:41:13.593Z,1.10
2023-03-19T06:43:42.152Z,1.00
2023-03-19T06:46:11.566Z,1.10
2023-03-19T06:48:38.724Z,1.30
2023-03-19T06:51:06.360Z,1.20
2023-03-19T06:53:33.317Z,1.35
2023-03-19T06:56:00.046Z,1.20
2023-03-19T06:58:27.208Z,1.10
2023-03-19T07:00:53.948Z,1.30
2023-03-19T07:03:20.861Z,1.33
2023-03-19T07:05:51.518Z,0.90
2023-03-19T07:08:18.517Z,1.40
2023-03-19T07:10:45.375Z,1.33
2023-03-19T07:13:12.128Z,1.10
2023-03-19T07:15:38.980Z,1.00
2023-03-19T07:18:05.877Z,1.42
2023-03-19T07:20:33.144Z,1.15
2023-03-19T07:23:00.012Z,1.65
2023-03-19T07:25:26.763Z,1.58
2023-03-19T07:27:55.931Z,1.60
2023-03-19T07:30:23.483Z,1.10
2023-03-19T07:32:50.641Z,1.30
2023-03-19T07:35:17.410Z,1.20
2023-03-19T07:37:44.080Z,1.13
2023-03-19T07:40:11.729Z,1.35
2023-03-19T07:42:38.697Z,1.45
2023-03-19T07:45:06.817Z,1.20
2023-03-19T07:47:33.530Z,1.48
2023-03-19T07:50:00.798Z,1.48
2023-03-19T07:52:27.647Z,1.38
2023-03-19T07:54:54.424Z,1.58
2023-03-19T07:57:21.211Z,1.13
2023-03-19T07:59:47.898Z,1.60
2023-03-19T08:02:14.898Z,1.38
2023-03-19T08:04:42.199Z,1.30
2023-03-19T08:07:12.694Z,1.30
2023-03-19T08:09:40.979Z,1.20
2023-03-19T08:12:09.152Z,1.40
2023-03-19T08:14:36.210Z,1.35
2023-03-19T08:17:06.060Z,1.15
2023-03-19T08:19:33.003Z,1.00
2023-03-19T08:21:59.749Z,1.40
2023-03-19T08:24:26.564Z,1.17
2023-03-19T08:26:53.660Z,1.10
2023-03-19T08:29:21.005Z,1.35
2023-03-19T08:31:47.736Z,1.05
2023-03-19T08:34:14.842Z,1.30
2023-03-19T08:36:41.501Z,1.00
2023-03-19T08:39:08.749Z,1.00
2023-03-19T08:41:36.971Z,1.10
2023-03-19T08:44:04.398Z,1.00
2023-03-19T08:46:31.580Z,1.30
2023-03-19T08:49:00.966Z,1.00
2023-03-19T08:51:31.197Z,1.65
2023-03-19T08:53:58.060Z,1.33
2023-03-19T08:56:24.742Z,1.23
2023-03-19T08:58:51.518Z,1.10
2023-03-19T09:01:18.205Z,1.30
2023-03-19T09:03:45.475Z,1.23
2023-03-19T09:06:14.443Z,1.05
2023-03-19T09:08:42.233Z,1.10
2023-03-19T09:11:09.089Z,1.35
2023-03-19T09:13:36.105Z,1.00
2023-03-19T09:16:03.152Z,0.90
2023-03-19T09:18:29.849Z,1.30
2023-03-19T09:20:56.598Z,0.90
2023-03-19T09:23:23.537Z,1.00
2023-03-19T09:25:51.225Z,1.10
2023-03-19T09:28:18.353Z,0.93
2023-03-19T09:30:49.599Z,1.30
2023-03-19T09:33:17.718Z,0.90
2023-03-19T09:35:49.789Z,1.20
2023-03-19T09:38:16.635Z,1.10
2023-03-19T09:40:49.072Z,1.10
2023-03-19T09:43:24.848Z,1.30
2023-03-19T09:45:52.179Z,1.35
2023-03-19T09:48:57.634Z,1.25
2023-03-19T09:51:46.720Z,1.00
2023-03-19T09:54:28.558Z,1.10
2023-03-19T09:56:55.925Z,1.02
2023-03-19T09:59:25.204Z,1.00
2023-03-19T10:02:07.010Z,1.10
2023-03-19T10:04:42.626Z,1.30
2023-03-19T10:07:24.331Z,1.10
2023-03-19T10:10:27.097Z,1.02
2023-03-19T10:13:15.531Z,1.10
2023-03-19T10:15:44.972Z,1.02
2023-03-19T10:18:18.468Z,1.40
2023-03-19T10:21:06.927Z,1.10
2023-03-19T10:23:53.202Z,1.10
2023-03-19T10:26:22.372Z,1.10
2023-03-19T10:29:14.825Z,1.10
2023-03-19T10:31:52.095Z,1.35
2023-03-19T10:34:29.461Z,1.25
2023-03-19T10:37:22.735Z,1.45
2023-03-19T10:39:51.656Z,1.27
2023-03-19T10:42:40.945Z,1.10
2023-03-19T10:45:31.482Z,1.05
2023-03-19T10:47:59.780Z,0.90
2023-03-19T10:50:38.922Z,1.10
2023-03-19T10:53:14.688Z,1.10
2023-03-19T10:55:53.532Z,1.00
2023-03-19T10:58:23.903Z,1.10
2023-03-19T11:01:06.855Z,1.52
2023-03-19T11:03:34.974Z,1.30
2023-03-19T11:06:07.972Z,1.20
2023-03-19T11:08:37.197Z,1.20
2023-03-19T11:11:04.120Z,1.13
2023-03-19T11:13:34.266Z,1.20
2023-03-19T11:16:01.318Z,1.42
2023-03-19T11:18:37.249Z,1.10
2023-03-19T11:21:21.464Z,1.10
2023-03-19T11:23:53.538Z,1.10
2023-03-19T11:26:21.716Z,1.52
2023-03-19T11:28:52.132Z,1.20
2023-03-19T11:31:27.389Z,1.40
2023-03-19T11:34:03.152Z,2.13
2023-03-19T11:36:54.121Z,1.10
2023-03-19T11:39:59.305Z,1.35
2023-03-19T11:42:41.068Z,1.55
2023-03-19T11:45:13.704Z,1.40
2023-03-19T11:47:49.518Z,1.52
2023-03-19T11:50:22.372Z,1.02
2023-03-19T11:53:07.258Z,1.00
2023-03-19T11:55:44.336Z,1.30
2023-03-19T11:58:35.986Z,1.38
2023-03-19T12:01:45.833Z,1.10
2023-03-19T12:04:30.930Z,1.10
2023-03-19T12:07:24.834Z,1.45
2023-03-19T12:10:12.792Z,1.10
2023-03-19T12:13:08.883Z,1.13
2023-03-19T12:16:02.500Z,1.00
2023-03-19T12:22:28.063Z,1.00
2023-03-19T12:25:03.602Z,1.08
2023-03-19T12:27:41.882Z,0.90
2023-03-19T12:30:27.510Z,1.05
2023-03-19T12:32:58.213Z,1.20
2023-03-19T12:35:31.876Z,1.20
2023-03-19T12:38:17.286Z,1.23
2023-03-19T12:40:50.461Z,1.20
2023-03-19T12:46:01.235Z,1.00
2023-03-19T12:48:51.277Z,1.17
2023-03-19T12:51:22.856Z,1.23
2023-03-19T12:53:59.324Z,1.48
2023-03-19T12:57:00.302Z,1.35
2023-03-19T12:59:41.129Z,1.50
2023-03-19T13:02:29.652Z,1.38
2023-03-19T13:05:07.459Z,1.20
2023-03-19T13:07:49.144Z,2.05
2023-03-19T13:10:21.349Z,1.42
2023-03-19T13:12:50.353Z,1.10
2023-03-19T13:15:20.819Z,1.35
2023-03-19T13:18:06.237Z,1.00
2023-03-19T13:21:00.697Z,1.83
2023-03-19T13:23:32.536Z,1.98
2023-03-19T13:26:04.468Z,1.17
2023-03-19T13:28:35.293Z,1.65
2023-03-19T13:31:06.806Z,1.35
2023-03-19T13:33:35.576Z,1.60
2023-03-19T13:36:05.811Z,3.00
2023-03-19T13:38:40.623Z,3.00
2023-03-19T13:41:33.012Z,4.20
2023-03-19T13:44:01.761Z,3.80
2023-03-19T13:46:41.232Z,2.95
2023-03-19T13:49:14.257Z,2.17
2023-03-19T13:51:40.916Z,2.10
2023-03-19T13:54:18.003Z,1.60
2023-03-19T13:57:15.364Z,1.48
2023-03-19T13:59:45.304Z,1.40
2023-03-19T14:02:21.356Z,1.30
2023-03-19T14:05:07.220Z,1.20
2023-03-19T14:07:41.664Z,1.30
2023-03-19T14:10:25.405Z,1.48
2023-03-19T14:13:02.819Z,2.30
2023-03-19T14:15:30.963Z,1.90
2023-03-19T14:18:07.485Z,2.17
2023-03-19T14:20:48.101Z,2.08
2023-03-19T14:23:42.668Z,1.80
2023-03-19T14:26:23.333Z,3.58
2023-03-19T14:29:04.409Z,2.35
2023-03-19T14:31:42.874Z,2.08
2023-03-19T14:34:22.124Z,1.52
2023-03-19T14:37:03.333Z,1.63
2023-03-19T14:39:40.809Z,1.48
2023-03-19T14:42:25.602Z,1.33
2023-03-19T14:45:21.846Z,1.75
2023-03-19T14:48:09.737Z,1.00
2023-03-19T14:50:42.387Z,4.50
2023-03-19T14:53:19.367Z,2.63
2023-03-19T14:55:51.336Z,1.73
2023-03-19T14:58:21.043Z,1.90
2023-03-19T15:00:51.765Z,2.92
2023-03-19T15:03:30.580Z,2.22
2023-03-19T15:06:02.576Z,11.65
2023-03-19T15:08:32.420Z,4.03
2023-03-19T15:11:15.331Z,2.50
2023-03-19T15:14:06.600Z,2.35
2023-03-19T15:16:51.876Z,2.55
2023-03-19T15:19:29.149Z,4.80
2023-03-19T15:22:19.713Z,3.75
2023-03-19T15:24:48.029Z,3.60
2023-03-19T15:27:22.006Z,2.45
2023-03-19T15:29:51.549Z,2.38
2023-03-19T15:32:52.170Z,3.00
2023-03-19T15:35:24.911Z,2.10
2023-03-19T15:37:56.850Z,2.88
2023-03-19T15:40:29.004Z,1.92
2023-03-19T15:42:59.444Z,2.00
2023-03-19T15:45:28.558Z,1.48
2023-03-19T15:48:02.182Z,1.48
2023-03-19T15:50:34.003Z,1.60
2023-03-19T15:53:09.138Z,1.40
2023-03-19T15:55:37.140Z,1.50
2023-03-19T15:58:16.000Z,1.50
2023-03-19T16:00:43.826Z,1.40
2023-03-19T16:03:19.954Z,1.65
2023-03-19T16:05:52.714Z,2.00
2023-03-19T16:08:25.945Z,1.73
2023-03-19T16:13:27.843Z,1.77
2023-03-19T16:15:57.183Z,1.40
2023-03-19T16:18:25.544Z,1.50
2023-03-19T16:21:02.917Z,1.80
2023-03-19T16:23:36.149Z,1.40
2023-03-19T16:29:05.796Z,1.90
2023-03-19T16:31:41.395Z,2.10
2023-03-19T16:34:24.703Z,1.50
2023-03-19T16:36:51.646Z,1.70
2023-03-19T16:39:30.643Z,1.67
2023-03-19T16:42:09.390Z,1.63
2023-03-19T16:44:40.965Z,1.55
2023-03-19T16:47:12.102Z,1.50
2023-03-19T16:49:38.920Z,1.92
2023-03-19T16:52:10.513Z,1.48
2023-03-19T16:54:37.474Z,1.50
2023-03-19T16:57:04.305Z,1.90
2023-03-19T16:59:31.469Z,1.70
2023-03-19T17:01:59.034Z,1.48
2023-03-19T17:04:26.557Z,1.60
2023-03-19T17:06:53.326Z,1.67
2023-03-19T17:09:20.843Z,1.90
2023-03-19T17:11:47.716Z,1.95
2023-03-19T17:14:21.161Z,1.80
2023-03-19T17:16:50.866Z,1.42
2023-03-19T17:19:23.463Z,1.48
2023-03-19T17:21:53.610Z,1.40
2023-03-19T17:24:27.229Z,2.40
2023-03-19T17:26:55.223Z,1.60
2023-03-19T17:29:23.938Z,1.42
2023-03-19T17:31:52.003Z,1.65
2023-03-19T17:34:23.460Z,1.77
2023-03-19T17:36:53.237Z,2.05
2023-03-19T17:39:20.081Z,2.10
2023-03-19T17:41:46.772Z,2.15
2023-03-19T17:44:14.803Z,2.38
2023-03-19T17:46:53.294Z,1.77
2023-03-19T17:49:24.477Z,1.50
2023-03-19T17:51:51.761Z,1.73
2023-03-19T17:54:18.844Z,1.90
2023-03-19T17:56:45.601Z,3.05
2023-03-19T17:59:12.931Z,1.73
2023-03-19T18:01:43.137Z,1.50
2023-03-19T18:04:14.164Z,1.42
2023-03-19T18:06:44.321Z,1.65
2023-03-19T18:09:21.631Z,1.55
2023-03-19T18:11:48.725Z,1.52
2023-03-19T18:14:15.656Z,1.60
2023-03-19T18:16:42.890Z,1.63
2023-03-19T18:19:33.523Z,1.67
2023-03-19T18:22:00.661Z,1.30
2023-03-19T18:24:27.589Z,1.55
2023-03-19T18:26:54.225Z,1.80
2023-03-19T18:29:21.161Z,2.15
2023-03-19T18:31:50.190Z,1.67
2023-03-19T18:34:17.880Z,1.80
2023-03-19T18:36:44.905Z,2.28
2023-03-19T18:39:16.379Z,3.42
2023-03-19T18:41:43.775Z,3.22
2023-03-19T18:44:12.466Z,2.97
2023-03-19T18:46:40.734Z,2.78
2023-03-19T18:49:16.049Z,2.28
2023-03-19T18:51:58.785Z,1.92
2023-03-19T18:54:27.708Z,2.17
2023-03-19T18:56:54.920Z,1.70
2023-03-19T18:59:25.349Z,2.10
2023-03-19T19:02:00.884Z,1.73
2023-03-19T19:04:29.690Z,2.20
2023-03-19T19:06:56.652Z,1.70
2023-03-19T19:09:23.349Z,1.50
2023-03-19T19:11:50.171Z,1.70
2023-03-19T19:14:22.012Z,2.17
2023-03-19T19:16:49.038Z,2.25
2023-03-19T19:19:23.242Z,1.73
2023-03-19T19:21:53.096Z,1.40
2023-03-19T19:24:21.059Z,1.55
2023-03-19T19:26:54.127Z,2.10
2023-03-19T19:31:53.655Z,1.50
2023-03-19T19:34:20.555Z,1.63
2023-03-19T19:36:47.251Z,1.83
2023-03-19T19:39:13.916Z,1.80
2023-03-19T19:41:43.722Z,1.77
2023-03-19T19:44:18.965Z,2.53
2023-03-19T19:46:46.187Z,1.75
2023-03-19T19:49:16.885Z,1.75
2023-03-19T19:51:43.558Z,1.60
2023-03-19T19:54:10.518Z,1.63
2023-03-19T19:56:37.664Z,2.00
2023-03-19T19:59:06.985Z,1.58
2023-03-19T20:01:33.675Z,2.67
2023-03-19T20:04:00.568Z,5.75
2023-03-19T20:06:27.741Z,2.90
2023-03-19T20:08:54.425Z,2.58
2023-03-19T20:11:23.741Z,2.35
2023-03-19T20:13:54.616Z,1.95
2023-03-19T20:16:24.184Z,1.60
2023-03-19T20:18:53.856Z,2.05
2023-03-19T20:21:22.615Z,2.22
2023-03-19T20:23:52.995Z,1.88
2023-03-19T20:26:22.538Z,1.60
2023-03-19T20:28:50.933Z,1.70
2023-03-19T20:31:25.475Z,2.00
2023-03-19T20:33:52.379Z,1.83
2023-03-19T20:36:19.895Z,1.70
2023-03-19T20:38:46.659Z,2.08
2023-03-19T20:41:22.395Z,2.17
2023-03-19T20:43:50.595Z,1.80
2023-03-19T20:46:20.341Z,2.08
2023-03-19T20:48:48.060Z,1.60
2023-03-19T20:51:21.700Z,1.77
2023-03-19T20:53:49.950Z,1.60
2023-03-19T20:56:18.838Z,1.58
2023-03-19T20:58:45.912Z,1.60
2023-03-19T21:01:15.607Z,1.45
2023-03-19T21:03:42.753Z,1.50
2023-03-19T21:06:20.045Z,1.40
2023-03-19T21:08:57.737Z,1.52
2023-03-19T21:11:36.235Z,1.33
2023-03-19T21:14:03.783Z,1.70
2023-03-19T21:16:32.345Z,2.03
2023-03-19T21:18:59.181Z,1.80
2023-03-19T21:21:37.367Z,1.92
2023-03-19T21:24:15.650Z,2.25
2023-03-19T21:26:43.863Z,1.77
2023-03-19T21:29:34.356Z,1.80
2023-03-19T21:32:01.026Z,1.85
2023-03-19T21:34:28.554Z,1.30
2023-03-19T21:36:55.361Z,1.30
2023-03-19T21:39:22.093Z,1.58
2023-03-19T21:41:49.050Z,1.55
2023-03-19T21:44:20.815Z,1.40
2023-03-19T21:46:48.793Z,1.50
2023-03-19T21:49:16.225Z,1.50
2023-03-19T21:51:44.075Z,1.48
2023-03-19T21:54:11.388Z,1.33
2023-03-19T21:56:41.655Z,1.60
2023-03-19T21:59:18.110Z,1.42
2023-03-19T22:01:45.502Z,1.13
2023-03-19T22:04:12.695Z,1.83
2023-03-19T22:06:40.142Z,1.50
2023-03-19T22:09:06.827Z,1.52
2023-03-19T22:11:36.613Z,1.30
2023-03-19T22:14:15.986Z,1.45
2023-03-19T22:16:42.711Z,1.70
2023-03-19T22:19:14.553Z,1.50
2023-03-19T22:21:41.250Z,1.50
2023-03-19T22:24:08.175Z,1.45
2023-03-19T22:26:37.378Z,1.60
2023-03-19T22:29:07.824Z,1.70
2023-03-19T22:31:34.944Z,1.85
2023-03-19T22:34:01.841Z,1.40
2023-03-19T22:36:28.917Z,2.05
2023-03-19T22:38:55.686Z,1.38
2023-03-19T22:41:36.712Z,1.33
2023-03-19T22:44:08.036Z,1.30
2023-03-19T22:46:35.437Z,1.38
2023-03-19T22:49:02.665Z,1.60
2023-03-19T22:51:30.642Z,1.90
2023-03-19T22:53:57.285Z,1.40
2023-03-19T22:56:24.094Z,1.20
2023-03-19T22:58:50.981Z,1.30
2023-03-19T23:01:21.201Z,1.27
2023-03-19T23:03:49.578Z,1.65
2023-03-19T23:06:29.229Z,1.48
2023-03-19T23:08:56.203Z,2.40
2023-03-19T23:11:23.567Z,1.33
2023-03-19T23:13:50.365Z,1.40
2023-03-19T23:16:22.452Z,1.42
2023-03-19T23:18:49.896Z,2.10
2023-03-19T23:21:18.695Z,1.23
2023-03-19T23:23:46.095Z,1.35
2023-03-19T23:26:31.658Z,1.90
2023-03-19T23:29:03.642Z,1.83
2023-03-19T23:31:31.690Z,1.58
2023-03-19T23:33:58.733Z,1.88
2023-03-19T23:36:25.776Z,1.40
2023-03-19T23:38:52.460Z,2.13
2023-03-19T23:41:26.771Z,1.60
2023-03-19T23:43:54.928Z,1.73
2023-03-19T23:46:22.225Z,1.30
2023-03-19T23:48:49.131Z,1.30
2023-03-19T23:51:16.971Z,3.40
2023-03-19T23:53:44.321Z,1.50
2023-03-19T23:56:18.913Z,1.60
2023-03-19T23:58:47.620Z,2.35
